<?xml version="1.0" encoding="UTF-8" standalone="no" ?>
<gpx xmlns="http://www.topografix.com/GPX/1/1" xmlns:xsi="http://www.w3.org/2001/XMLSchema-instance" xsi:schemaLocation="http://www.topografix.com/GPX/1/1 http://www.topografix.com/GPX/1/1/gpx.xsd" version="1.1" creator="VisuGPX - https://www.visugpx.com">
  <metadata>
    <name>4- 1 Zambujeira - Porto Covo A 56 km</name>
    <desc><![CDATA[parcours sans variante eurovélo 
]]></desc>
  </metadata>
  <trk>
    <name><![CDATA[4- 1 Zambujeira - Porto Covo A 56 km_1]]></name>
    <trkseg>
      <trkpt lat="37.5243" lon="-8.7858">
        <ele>37</ele>
        <time>2010-01-01T02:36:49Z</time>
      </trkpt>
      <trkpt lat="37.52445" lon="-8.78384">
        <ele>39</ele>
        <time>2010-01-01T02:37:30Z</time>
      </trkpt>
      <trkpt lat="37.52525" lon="-8.78395">
        <ele>40</ele>
        <time>2010-01-01T02:37:52Z</time>
      </trkpt>
      <trkpt lat="37.52688" lon="-8.78419">
        <ele>44</ele>
        <time>2010-01-01T02:38:36Z</time>
      </trkpt>
      <trkpt lat="37.52812" lon="-8.78433">
        <ele>44</ele>
        <time>2010-01-01T02:39:09Z</time>
      </trkpt>
      <trkpt lat="37.5302" lon="-8.78435">
        <ele>44</ele>
        <time>2010-01-01T02:40:04Z</time>
      </trkpt>
      <trkpt lat="37.5317" lon="-8.78445">
        <ele>43</ele>
        <time>2010-01-01T02:40:45Z</time>
      </trkpt>
      <trkpt lat="37.53198" lon="-8.78445">
        <ele>44</ele>
        <time>2010-01-01T02:40:52Z</time>
      </trkpt>
      <trkpt lat="37.53327" lon="-8.78451">
        <ele>49</ele>
        <time>2010-01-01T02:41:26Z</time>
      </trkpt>
      <trkpt lat="37.53419" lon="-8.78459">
        <ele>49</ele>
        <time>2010-01-01T02:41:51Z</time>
      </trkpt>
      <trkpt lat="37.53474" lon="-8.78464">
        <ele>50</ele>
        <time>2010-01-01T02:42:06Z</time>
      </trkpt>
      <trkpt lat="37.53583" lon="-8.78478">
        <ele>49</ele>
        <time>2010-01-01T02:42:35Z</time>
      </trkpt>
      <trkpt lat="37.5379" lon="-8.78567">
        <ele>46</ele>
        <time>2010-01-01T02:43:33Z</time>
      </trkpt>
      <trkpt lat="37.54106" lon="-8.78701">
        <ele>49</ele>
        <time>2010-01-01T02:45:02Z</time>
      </trkpt>
      <trkpt lat="37.54802" lon="-8.79003">
        <ele>41</ele>
        <time>2010-01-01T02:48:19Z</time>
      </trkpt>
      <trkpt lat="37.54942" lon="-8.79156">
        <ele>36</ele>
        <time>2010-01-01T02:49:08Z</time>
      </trkpt>
      <trkpt lat="37.55249" lon="-8.7879">
        <ele>42</ele>
        <time>2010-01-01T02:51:01Z</time>
      </trkpt>
      <trkpt lat="37.55439" lon="-8.7846">
        <ele>41</ele>
        <time>2010-01-01T02:52:27Z</time>
      </trkpt>
      <trkpt lat="37.55537" lon="-8.78289">
        <ele>47</ele>
        <time>2010-01-01T02:53:12Z</time>
      </trkpt>
      <trkpt lat="37.55729" lon="-8.77953">
        <ele>55</ele>
        <time>2010-01-01T02:54:40Z</time>
      </trkpt>
      <trkpt lat="37.55851" lon="-8.77904">
        <ele>58</ele>
        <time>2010-01-01T02:55:14Z</time>
      </trkpt>
      <trkpt lat="37.56022" lon="-8.77834">
        <ele>63</ele>
        <time>2010-01-01T02:56:01Z</time>
      </trkpt>
      <trkpt lat="37.56301" lon="-8.77718">
        <ele>67</ele>
        <time>2010-01-01T02:57:20Z</time>
      </trkpt>
      <trkpt lat="37.56335" lon="-8.77714">
        <ele>67</ele>
        <time>2010-01-01T02:57:29Z</time>
      </trkpt>
      <trkpt lat="37.56577" lon="-8.77751">
        <ele>64</ele>
        <time>2010-01-01T02:58:34Z</time>
      </trkpt>
      <trkpt lat="37.56794" lon="-8.77784">
        <ele>65</ele>
        <time>2010-01-01T02:59:33Z</time>
      </trkpt>
      <trkpt lat="37.57009" lon="-8.77816">
        <ele>68</ele>
        <time>2010-01-01T03:00:30Z</time>
      </trkpt>
      <trkpt lat="37.57247" lon="-8.77852">
        <ele>67</ele>
        <time>2010-01-01T03:01:34Z</time>
      </trkpt>
      <trkpt lat="37.57493" lon="-8.7789">
        <ele>64</ele>
        <time>2010-01-01T03:02:40Z</time>
      </trkpt>
      <trkpt lat="37.57553" lon="-8.77899">
        <ele>65</ele>
        <time>2010-01-01T03:02:56Z</time>
      </trkpt>
      <trkpt lat="37.57878" lon="-8.77874">
        <ele>64</ele>
        <time>2010-01-01T03:04:23Z</time>
      </trkpt>
      <trkpt lat="37.58115" lon="-8.77852">
        <ele>63</ele>
        <time>2010-01-01T03:05:27Z</time>
      </trkpt>
      <trkpt lat="37.58356" lon="-8.77829">
        <ele>68</ele>
        <time>2010-01-01T03:06:31Z</time>
      </trkpt>
      <trkpt lat="37.58641" lon="-8.77801">
        <ele>66</ele>
        <time>2010-01-01T03:07:47Z</time>
      </trkpt>
      <trkpt lat="37.58834" lon="-8.77783">
        <ele>67</ele>
        <time>2010-01-01T03:08:39Z</time>
      </trkpt>
      <trkpt lat="37.59177" lon="-8.7775">
        <ele>69</ele>
        <time>2010-01-01T03:10:11Z</time>
      </trkpt>
      <trkpt lat="37.59385" lon="-8.77722">
        <ele>76</ele>
        <time>2010-01-01T03:11:07Z</time>
      </trkpt>
      <trkpt lat="37.59408" lon="-8.77705">
        <ele>76</ele>
        <time>2010-01-01T03:11:14Z</time>
      </trkpt>
      <trkpt lat="37.59683" lon="-8.77212">
        <ele>82</ele>
        <time>2010-01-01T03:13:21Z</time>
      </trkpt>
      <trkpt lat="37.59834" lon="-8.77076">
        <ele>76</ele>
        <time>2010-01-01T03:14:11Z</time>
      </trkpt>
      <trkpt lat="37.59866" lon="-8.77064">
        <ele>75</ele>
        <time>2010-01-01T03:14:20Z</time>
      </trkpt>
      <trkpt lat="37.60013" lon="-8.77289">
        <ele>75</ele>
        <time>2010-01-01T03:15:22Z</time>
      </trkpt>
      <trkpt lat="37.59962" lon="-8.78956">
        <ele>60</ele>
        <time>2010-01-01T03:21:14Z</time>
      </trkpt>
      <trkpt lat="37.59948" lon="-8.79434">
        <ele>56</ele>
        <time>2010-01-01T03:22:55Z</time>
      </trkpt>
      <trkpt lat="37.59929" lon="-8.80111">
        <ele>50</ele>
        <time>2010-01-01T03:25:19Z</time>
      </trkpt>
      <trkpt lat="37.59871" lon="-8.80546">
        <ele>47</ele>
        <time>2010-01-01T03:26:52Z</time>
      </trkpt>
      <trkpt lat="37.60135" lon="-8.80361">
        <ele>49</ele>
        <time>2010-01-01T03:28:13Z</time>
      </trkpt>
      <trkpt lat="37.60635" lon="-8.79883">
        <ele>58</ele>
        <time>2010-01-01T03:31:00Z</time>
      </trkpt>
      <trkpt lat="37.61076" lon="-8.79417">
        <ele>61</ele>
        <time>2010-01-01T03:33:33Z</time>
      </trkpt>
      <trkpt lat="37.61292" lon="-8.79179">
        <ele>61</ele>
        <time>2010-01-01T03:34:50Z</time>
      </trkpt>
      <trkpt lat="37.61488" lon="-8.78939">
        <ele>65</ele>
        <time>2010-01-01T03:36:03Z</time>
      </trkpt>
      <trkpt lat="37.61683" lon="-8.78678">
        <ele>61</ele>
        <time>2010-01-01T03:37:19Z</time>
      </trkpt>
      <trkpt lat="37.61966" lon="-8.78248">
        <ele>59</ele>
        <time>2010-01-01T03:39:17Z</time>
      </trkpt>
      <trkpt lat="37.62266" lon="-8.78274">
        <ele>59</ele>
        <time>2010-01-01T03:40:37Z</time>
      </trkpt>
      <trkpt lat="37.62672" lon="-8.78312">
        <ele>55</ele>
        <time>2010-01-01T03:42:26Z</time>
      </trkpt>
      <trkpt lat="37.63103" lon="-8.78377">
        <ele>52</ele>
        <time>2010-01-01T03:44:22Z</time>
      </trkpt>
      <trkpt lat="37.63261" lon="-8.78402">
        <ele>50</ele>
        <time>2010-01-01T03:45:04Z</time>
      </trkpt>
      <trkpt lat="37.63508" lon="-8.78401">
        <ele>51</ele>
        <time>2010-01-01T03:46:10Z</time>
      </trkpt>
      <trkpt lat="37.63853" lon="-8.78419">
        <ele>48</ele>
        <time>2010-01-01T03:47:42Z</time>
      </trkpt>
      <trkpt lat="37.64006" lon="-8.78516">
        <ele>45</ele>
        <time>2010-01-01T03:48:28Z</time>
      </trkpt>
      <trkpt lat="37.64287" lon="-8.78677">
        <ele>42</ele>
        <time>2010-01-01T03:49:50Z</time>
      </trkpt>
      <trkpt lat="37.64532" lon="-8.78802">
        <ele>38</ele>
        <time>2010-01-01T03:51:01Z</time>
      </trkpt>
      <trkpt lat="37.6491" lon="-8.79052">
        <ele>35</ele>
        <time>2010-01-01T03:52:55Z</time>
      </trkpt>
      <trkpt lat="37.65226" lon="-8.7925">
        <ele>31</ele>
        <time>2010-01-01T03:54:29Z</time>
      </trkpt>
      <trkpt lat="37.65451" lon="-8.78967">
        <ele>18</ele>
        <time>2010-01-01T03:55:53Z</time>
      </trkpt>
      <trkpt lat="37.65451" lon="-8.78967">
        <ele>18</ele>
        <time>2010-01-01T03:55:53Z</time>
      </trkpt>
      <trkpt lat="37.65552" lon="-8.78651">
        <ele>26</ele>
        <time>2010-01-01T03:57:05Z</time>
      </trkpt>
      <trkpt lat="37.6557" lon="-8.78444">
        <ele>28</ele>
        <time>2010-01-01T03:57:49Z</time>
      </trkpt>
      <trkpt lat="37.65627" lon="-8.78018">
        <ele>34</ele>
        <time>2010-01-01T03:59:21Z</time>
      </trkpt>
      <trkpt lat="37.65641" lon="-8.77751">
        <ele>35</ele>
        <time>2010-01-01T04:00:17Z</time>
      </trkpt>
      <trkpt lat="37.65752" lon="-8.77566">
        <ele>43</ele>
        <time>2010-01-01T04:01:06Z</time>
      </trkpt>
      <trkpt lat="37.65976" lon="-8.77461">
        <ele>44</ele>
        <time>2010-01-01T04:02:10Z</time>
      </trkpt>
      <trkpt lat="37.66174" lon="-8.77362">
        <ele>43</ele>
        <time>2010-01-01T04:03:07Z</time>
      </trkpt>
      <trkpt lat="37.66529" lon="-8.77178">
        <ele>52</ele>
        <time>2010-01-01T04:04:49Z</time>
      </trkpt>
      <trkpt lat="37.66694" lon="-8.77093">
        <ele>52</ele>
        <time>2010-01-01T04:05:37Z</time>
      </trkpt>
      <trkpt lat="37.6705" lon="-8.76899">
        <ele>50</ele>
        <time>2010-01-01T04:07:20Z</time>
      </trkpt>
      <trkpt lat="37.67318" lon="-8.76711">
        <ele>50</ele>
        <time>2010-01-01T04:08:42Z</time>
      </trkpt>
      <trkpt lat="37.67539" lon="-8.76617">
        <ele>54</ele>
        <time>2010-01-01T04:09:44Z</time>
      </trkpt>
      <trkpt lat="37.67755" lon="-8.76496">
        <ele>54</ele>
        <time>2010-01-01T04:10:47Z</time>
      </trkpt>
      <trkpt lat="37.68111" lon="-8.76317">
        <ele>57</ele>
        <time>2010-01-01T04:12:30Z</time>
      </trkpt>
      <trkpt lat="37.68435" lon="-8.76436">
        <ele>53</ele>
        <time>2010-01-01T04:14:00Z</time>
      </trkpt>
      <trkpt lat="37.68697" lon="-8.76542">
        <ele>56</ele>
        <time>2010-01-01T04:15:13Z</time>
      </trkpt>
      <trkpt lat="37.68951" lon="-8.76644">
        <ele>53</ele>
        <time>2010-01-01T04:16:24Z</time>
      </trkpt>
      <trkpt lat="37.69294" lon="-8.76777">
        <ele>54</ele>
        <time>2010-01-01T04:18:00Z</time>
      </trkpt>
      <trkpt lat="37.69625" lon="-8.7691">
        <ele>48</ele>
        <time>2010-01-01T04:19:33Z</time>
      </trkpt>
      <trkpt lat="37.69921" lon="-8.77029">
        <ele>50</ele>
        <time>2010-01-01T04:20:55Z</time>
      </trkpt>
      <trkpt lat="37.70157" lon="-8.77118">
        <ele>52</ele>
        <time>2010-01-01T04:22:01Z</time>
      </trkpt>
      <trkpt lat="37.70293" lon="-8.77127">
        <ele>53</ele>
        <time>2010-01-01T04:22:37Z</time>
      </trkpt>
      <trkpt lat="37.70453" lon="-8.77064">
        <ele>54</ele>
        <time>2010-01-01T04:23:22Z</time>
      </trkpt>
      <trkpt lat="37.70716" lon="-8.76941">
        <ele>59</ele>
        <time>2010-01-01T04:24:37Z</time>
      </trkpt>
      <trkpt lat="37.7109" lon="-8.76764">
        <ele>60</ele>
        <time>2010-01-01T04:26:24Z</time>
      </trkpt>
      <trkpt lat="37.71286" lon="-8.76699">
        <ele>60</ele>
        <time>2010-01-01T04:27:18Z</time>
      </trkpt>
      <trkpt lat="37.71496" lon="-8.76662">
        <ele>56</ele>
        <time>2010-01-01T04:28:14Z</time>
      </trkpt>
      <trkpt lat="37.71702" lon="-8.76652">
        <ele>54</ele>
        <time>2010-01-01T04:29:09Z</time>
      </trkpt>
      <trkpt lat="37.72097" lon="-8.76723">
        <ele>39</ele>
        <time>2010-01-01T04:30:56Z</time>
      </trkpt>
      <trkpt lat="37.72411" lon="-8.76859">
        <ele>29</ele>
        <time>2010-01-01T04:32:24Z</time>
      </trkpt>
      <trkpt lat="37.72812" lon="-8.77055">
        <ele>11</ele>
        <time>2010-01-01T04:34:19Z</time>
      </trkpt>
      <trkpt lat="37.73047" lon="-8.77187">
        <ele>33</ele>
        <time>2010-01-01T04:35:28Z</time>
      </trkpt>
      <trkpt lat="37.73207" lon="-8.7719">
        <ele>41</ele>
        <time>2010-01-01T04:36:10Z</time>
      </trkpt>
      <trkpt lat="37.73312" lon="-8.77234">
        <ele>45</ele>
        <time>2010-01-01T04:36:40Z</time>
      </trkpt>
      <trkpt lat="37.73136" lon="-8.7742">
        <ele>41</ele>
        <time>2010-01-01T04:37:41Z</time>
      </trkpt>
      <trkpt lat="37.72992" lon="-8.77579">
        <ele>38</ele>
        <time>2010-01-01T04:38:32Z</time>
      </trkpt>
      <trkpt lat="37.7283" lon="-8.77759">
        <ele>36</ele>
        <time>2010-01-01T04:39:30Z</time>
      </trkpt>
      <trkpt lat="37.72708" lon="-8.77893">
        <ele>34</ele>
        <time>2010-01-01T04:40:13Z</time>
      </trkpt>
      <trkpt lat="37.72599" lon="-8.78013">
        <ele>32</ele>
        <time>2010-01-01T04:40:52Z</time>
      </trkpt>
      <trkpt lat="37.72468" lon="-8.78141">
        <ele>25</ele>
        <time>2010-01-01T04:41:36Z</time>
      </trkpt>
      <trkpt lat="37.7237" lon="-8.78193">
        <ele>22</ele>
        <time>2010-01-01T04:42:04Z</time>
      </trkpt>
      <trkpt lat="37.72323" lon="-8.78283">
        <ele>18</ele>
        <time>2010-01-01T04:42:27Z</time>
      </trkpt>
      <trkpt lat="37.72323" lon="-8.78283">
        <ele>18</ele>
        <time>2010-01-01T00:00:00Z</time>
      </trkpt>
      <trkpt lat="37.72323" lon="-8.78283">
        <ele>18</ele>
        <time>2010-01-01T00:00:00Z</time>
      </trkpt>
      <trkpt lat="37.7233" lon="-8.78634">
        <ele>12</ele>
        <time>2010-01-01T00:01:51Z</time>
      </trkpt>
      <trkpt lat="37.72505" lon="-8.78855">
        <ele>18</ele>
        <time>2010-01-01T00:03:30Z</time>
      </trkpt>
      <trkpt lat="37.72659" lon="-8.78997">
        <ele>20</ele>
        <time>2010-01-01T00:04:46Z</time>
      </trkpt>
      <trkpt lat="37.7284" lon="-8.79046">
        <ele>21</ele>
        <time>2010-01-01T00:06:00Z</time>
      </trkpt>
      <trkpt lat="37.73004" lon="-8.792">
        <ele>22</ele>
        <time>2010-01-01T00:07:22Z</time>
      </trkpt>
      <trkpt lat="37.7306" lon="-8.7925">
        <ele>22</ele>
        <time>2010-01-01T00:07:49Z</time>
      </trkpt>
      <trkpt lat="37.73188" lon="-8.79373">
        <ele>22</ele>
        <time>2010-01-01T00:08:54Z</time>
      </trkpt>
      <trkpt lat="37.73352" lon="-8.79488">
        <ele>22</ele>
        <time>2010-01-01T00:10:09Z</time>
      </trkpt>
      <trkpt lat="37.73428" lon="-8.79517">
        <ele>22</ele>
        <time>2010-01-01T00:10:41Z</time>
      </trkpt>
      <trkpt lat="37.73614" lon="-8.79607">
        <ele>20</ele>
        <time>2010-01-01T00:12:00Z</time>
      </trkpt>
      <trkpt lat="37.73731" lon="-8.79598">
        <ele>25</ele>
        <time>2010-01-01T00:12:47Z</time>
      </trkpt>
      <trkpt lat="37.7393" lon="-8.79583">
        <ele>26</ele>
        <time>2010-01-01T00:14:07Z</time>
      </trkpt>
      <trkpt lat="37.74078" lon="-8.79579">
        <ele>31</ele>
        <time>2010-01-01T00:15:06Z</time>
      </trkpt>
      <trkpt lat="37.74144" lon="-8.79568">
        <ele>31</ele>
        <time>2010-01-01T00:15:33Z</time>
      </trkpt>
      <trkpt lat="37.74319" lon="-8.79545">
        <ele>37</ele>
        <time>2010-01-01T00:16:43Z</time>
      </trkpt>
      <trkpt lat="37.74332" lon="-8.79539">
        <ele>37</ele>
        <time>2010-01-01T00:16:49Z</time>
      </trkpt>
      <trkpt lat="37.7437" lon="-8.7949">
        <ele>36</ele>
        <time>2010-01-01T00:17:11Z</time>
      </trkpt>
      <trkpt lat="37.74438" lon="-8.79413">
        <ele>38</ele>
        <time>2010-01-01T00:17:47Z</time>
      </trkpt>
      <trkpt lat="37.74464" lon="-8.79394">
        <ele>40</ele>
        <time>2010-01-01T00:17:59Z</time>
      </trkpt>
      <trkpt lat="37.74484" lon="-8.79361">
        <ele>43</ele>
        <time>2010-01-01T00:18:12Z</time>
      </trkpt>
      <trkpt lat="37.74506" lon="-8.79351">
        <ele>45</ele>
        <time>2010-01-01T00:18:22Z</time>
      </trkpt>
      <trkpt lat="37.74508" lon="-8.7932">
        <ele>46</ele>
        <time>2010-01-01T00:18:31Z</time>
      </trkpt>
      <trkpt lat="37.74521" lon="-8.79294">
        <ele>47</ele>
        <time>2010-01-01T00:18:41Z</time>
      </trkpt>
      <trkpt lat="37.74552" lon="-8.79282">
        <ele>47</ele>
        <time>2010-01-01T00:18:54Z</time>
      </trkpt>
      <trkpt lat="37.74587" lon="-8.79277">
        <ele>47</ele>
        <time>2010-01-01T00:19:08Z</time>
      </trkpt>
      <trkpt lat="37.74612" lon="-8.79268">
        <ele>48</ele>
        <time>2010-01-01T00:19:19Z</time>
      </trkpt>
      <trkpt lat="37.74673" lon="-8.79241">
        <ele>50</ele>
        <time>2010-01-01T00:19:45Z</time>
      </trkpt>
      <trkpt lat="37.74736" lon="-8.79221">
        <ele>48</ele>
        <time>2010-01-01T00:20:11Z</time>
      </trkpt>
      <trkpt lat="37.74919" lon="-8.79264">
        <ele>51</ele>
        <time>2010-01-01T00:21:25Z</time>
      </trkpt>
      <trkpt lat="37.74995" lon="-8.79282">
        <ele>50</ele>
        <time>2010-01-01T00:21:56Z</time>
      </trkpt>
      <trkpt lat="37.75188" lon="-8.79362">
        <ele>51</ele>
        <time>2010-01-01T00:23:17Z</time>
      </trkpt>
      <trkpt lat="37.75388" lon="-8.79375">
        <ele>50</ele>
        <time>2010-01-01T00:24:38Z</time>
      </trkpt>
      <trkpt lat="37.75628" lon="-8.79406">
        <ele>51</ele>
        <time>2010-01-01T00:26:14Z</time>
      </trkpt>
      <trkpt lat="37.75921" lon="-8.79468">
        <ele>51</ele>
        <time>2010-01-01T00:28:13Z</time>
      </trkpt>
      <trkpt lat="37.76165" lon="-8.7954">
        <ele>49</ele>
        <time>2010-01-01T00:29:53Z</time>
      </trkpt>
      <trkpt lat="37.76533" lon="-8.79638">
        <ele>53</ele>
        <time>2010-01-01T00:32:24Z</time>
      </trkpt>
      <trkpt lat="37.76723" lon="-8.79692">
        <ele>68</ele>
        <time>2010-01-01T00:33:42Z</time>
      </trkpt>
      <trkpt lat="37.76852" lon="-8.79763">
        <ele>66</ele>
        <time>2010-01-01T00:34:38Z</time>
      </trkpt>
      <trkpt lat="37.7692" lon="-8.79831">
        <ele>63</ele>
        <time>2010-01-01T00:35:13Z</time>
      </trkpt>
      <trkpt lat="37.77003" lon="-8.79939">
        <ele>56</ele>
        <time>2010-01-01T00:36:00Z</time>
      </trkpt>
      <trkpt lat="37.77126" lon="-8.79923">
        <ele>54</ele>
        <time>2010-01-01T00:36:50Z</time>
      </trkpt>
      <trkpt lat="37.77204" lon="-8.79941">
        <ele>51</ele>
        <time>2010-01-01T00:37:22Z</time>
      </trkpt>
      <trkpt lat="37.77279" lon="-8.79984">
        <ele>47</ele>
        <time>2010-01-01T00:37:55Z</time>
      </trkpt>
      <trkpt lat="37.7731" lon="-8.80016">
        <ele>44</ele>
        <time>2010-01-01T00:38:11Z</time>
      </trkpt>
      <trkpt lat="37.77318" lon="-8.80041">
        <ele>43</ele>
        <time>2010-01-01T00:38:19Z</time>
      </trkpt>
      <trkpt lat="37.77464" lon="-8.80098">
        <ele>38</ele>
        <time>2010-01-01T00:39:20Z</time>
      </trkpt>
      <trkpt lat="37.7749" lon="-8.80103">
        <ele>37</ele>
        <time>2010-01-01T00:39:31Z</time>
      </trkpt>
      <trkpt lat="37.77509" lon="-8.8011">
        <ele>36</ele>
        <time>2010-01-01T00:39:39Z</time>
      </trkpt>
      <trkpt lat="37.77551" lon="-8.80125">
        <ele>35</ele>
        <time>2010-01-01T00:39:56Z</time>
      </trkpt>
      <trkpt lat="37.77609" lon="-8.8014">
        <ele>33</ele>
        <time>2010-01-01T00:40:20Z</time>
      </trkpt>
      <trkpt lat="37.77694" lon="-8.80147">
        <ele>31</ele>
        <time>2010-01-01T00:40:54Z</time>
      </trkpt>
      <trkpt lat="37.77733" lon="-8.80154">
        <ele>29</ele>
        <time>2010-01-01T00:41:10Z</time>
      </trkpt>
      <trkpt lat="37.7777" lon="-8.80145">
        <ele>26</ele>
        <time>2010-01-01T00:41:25Z</time>
      </trkpt>
      <trkpt lat="37.77778" lon="-8.80136">
        <ele>27</ele>
        <time>2010-01-01T00:41:29Z</time>
      </trkpt>
      <trkpt lat="37.77951" lon="-8.8011">
        <ele>24</ele>
        <time>2010-01-01T00:42:39Z</time>
      </trkpt>
      <trkpt lat="37.78095" lon="-8.80084">
        <ele>19</ele>
        <time>2010-01-01T00:43:37Z</time>
      </trkpt>
      <trkpt lat="37.78219" lon="-8.80065">
        <ele>20</ele>
        <time>2010-01-01T00:44:27Z</time>
      </trkpt>
      <trkpt lat="37.7832" lon="-8.79951">
        <ele>21</ele>
        <time>2010-01-01T00:45:21Z</time>
      </trkpt>
      <trkpt lat="37.78512" lon="-8.79783">
        <ele>21</ele>
        <time>2010-01-01T00:46:55Z</time>
      </trkpt>
      <trkpt lat="37.78573" lon="-8.79743">
        <ele>21</ele>
        <time>2010-01-01T00:47:22Z</time>
      </trkpt>
      <trkpt lat="37.78867" lon="-8.79788">
        <ele>18</ele>
        <time>2010-01-01T00:49:21Z</time>
      </trkpt>
      <trkpt lat="37.79089" lon="-8.79604">
        <ele>24</ele>
        <time>2010-01-01T00:51:07Z</time>
      </trkpt>
      <trkpt lat="37.7925" lon="-8.79483">
        <ele>21</ele>
        <time>2010-01-01T00:52:22Z</time>
      </trkpt>
      <trkpt lat="37.79398" lon="-8.79496">
        <ele>20</ele>
        <time>2010-01-01T00:53:22Z</time>
      </trkpt>
      <trkpt lat="37.7959" lon="-8.79492">
        <ele>20</ele>
        <time>2010-01-01T00:54:38Z</time>
      </trkpt>
      <trkpt lat="37.79627" lon="-8.79471">
        <ele>20</ele>
        <time>2010-01-01T00:54:55Z</time>
      </trkpt>
      <trkpt lat="37.79728" lon="-8.79437">
        <ele>18</ele>
        <time>2010-01-01T00:55:36Z</time>
      </trkpt>
      <trkpt lat="37.79891" lon="-8.79372">
        <ele>18</ele>
        <time>2010-01-01T00:56:45Z</time>
      </trkpt>
      <trkpt lat="37.79916" lon="-8.79362">
        <ele>19</ele>
        <time>2010-01-01T00:56:55Z</time>
      </trkpt>
      <trkpt lat="37.79982" lon="-8.79356">
        <ele>24</ele>
        <time>2010-01-01T00:57:22Z</time>
      </trkpt>
      <trkpt lat="37.80084" lon="-8.79346">
        <ele>24</ele>
        <time>2010-01-01T00:58:03Z</time>
      </trkpt>
      <trkpt lat="37.80118" lon="-8.7935">
        <ele>24</ele>
        <time>2010-01-01T00:58:16Z</time>
      </trkpt>
      <trkpt lat="37.80219" lon="-8.79352">
        <ele>24</ele>
        <time>2010-01-01T00:58:57Z</time>
      </trkpt>
      <trkpt lat="37.80283" lon="-8.79359">
        <ele>25</ele>
        <time>2010-01-01T00:59:23Z</time>
      </trkpt>
      <trkpt lat="37.80343" lon="-8.79311">
        <ele>26</ele>
        <time>2010-01-01T00:59:51Z</time>
      </trkpt>
      <trkpt lat="37.80384" lon="-8.79251">
        <ele>28</ele>
        <time>2010-01-01T01:00:16Z</time>
      </trkpt>
      <trkpt lat="37.80429" lon="-8.7915">
        <ele>26</ele>
        <time>2010-01-01T01:00:53Z</time>
      </trkpt>
      <trkpt lat="37.80449" lon="-8.79094">
        <ele>26</ele>
        <time>2010-01-01T01:01:12Z</time>
      </trkpt>
      <trkpt lat="37.80459" lon="-8.79041">
        <ele>25</ele>
        <time>2010-01-01T01:01:29Z</time>
      </trkpt>
      <trkpt lat="37.80481" lon="-8.79004">
        <ele>23</ele>
        <time>2010-01-01T01:01:44Z</time>
      </trkpt>
      <trkpt lat="37.80507" lon="-8.7893">
        <ele>21</ele>
        <time>2010-01-01T01:02:10Z</time>
      </trkpt>
      <trkpt lat="37.80532" lon="-8.7886">
        <ele>23</ele>
        <time>2010-01-01T01:02:34Z</time>
      </trkpt>
      <trkpt lat="37.80548" lon="-8.78858">
        <ele>23</ele>
        <time>2010-01-01T01:02:40Z</time>
      </trkpt>
      <trkpt lat="37.80617" lon="-8.78834">
        <ele>25</ele>
        <time>2010-01-01T01:03:09Z</time>
      </trkpt>
      <trkpt lat="37.80688" lon="-8.78842">
        <ele>29</ele>
        <time>2010-01-01T01:03:38Z</time>
      </trkpt>
      <trkpt lat="37.80688" lon="-8.78558">
        <ele>38</ele>
        <time>2010-01-01T01:05:08Z</time>
      </trkpt>
      <trkpt lat="37.80719" lon="-8.78256">
        <ele>50</ele>
        <time>2010-01-01T01:06:44Z</time>
      </trkpt>
      <trkpt lat="37.80737" lon="-8.77972">
        <ele>50</ele>
        <time>2010-01-01T01:08:14Z</time>
      </trkpt>
      <trkpt lat="37.80765" lon="-8.77877">
        <ele>55</ele>
        <time>2010-01-01T01:08:46Z</time>
      </trkpt>
      <trkpt lat="37.80786" lon="-8.77805">
        <ele>55</ele>
        <time>2010-01-01T01:09:10Z</time>
      </trkpt>
      <trkpt lat="37.80786" lon="-8.77624">
        <ele>59</ele>
        <time>2010-01-01T01:10:08Z</time>
      </trkpt>
      <trkpt lat="37.80797" lon="-8.77579">
        <ele>58</ele>
        <time>2010-01-01T01:10:22Z</time>
      </trkpt>
      <trkpt lat="37.80918" lon="-8.77389">
        <ele>59</ele>
        <time>2010-01-01T01:11:40Z</time>
      </trkpt>
      <trkpt lat="37.80954" lon="-8.77371">
        <ele>60</ele>
        <time>2010-01-01T01:11:55Z</time>
      </trkpt>
      <trkpt lat="37.80982" lon="-8.77331">
        <ele>60</ele>
        <time>2010-01-01T01:12:12Z</time>
      </trkpt>
      <trkpt lat="37.81034" lon="-8.7723">
        <ele>58</ele>
        <time>2010-01-01T01:12:50Z</time>
      </trkpt>
      <trkpt lat="37.81122" lon="-8.77232">
        <ele>57</ele>
        <time>2010-01-01T01:13:25Z</time>
      </trkpt>
      <trkpt lat="37.81185" lon="-8.77239">
        <ele>59</ele>
        <time>2010-01-01T01:13:51Z</time>
      </trkpt>
      <trkpt lat="37.81257" lon="-8.77282">
        <ele>59</ele>
        <time>2010-01-01T01:14:23Z</time>
      </trkpt>
      <trkpt lat="37.81336" lon="-8.7733">
        <ele>58</ele>
        <time>2010-01-01T01:14:58Z</time>
      </trkpt>
      <trkpt lat="37.81553" lon="-8.7748">
        <ele>54</ele>
        <time>2010-01-01T01:16:37Z</time>
      </trkpt>
      <trkpt lat="37.81632" lon="-8.77733">
        <ele>46</ele>
        <time>2010-01-01T01:18:03Z</time>
      </trkpt>
      <trkpt lat="37.8177" lon="-8.78182">
        <ele>37</ele>
        <time>2010-01-01T01:20:35Z</time>
      </trkpt>
      <trkpt lat="37.8182" lon="-8.78358">
        <ele>37</ele>
        <time>2010-01-01T01:21:34Z</time>
      </trkpt>
      <trkpt lat="37.81841" lon="-8.78388">
        <ele>36</ele>
        <time>2010-01-01T01:21:47Z</time>
      </trkpt>
      <trkpt lat="37.81927" lon="-8.78572">
        <ele>28</ele>
        <time>2010-01-01T01:22:55Z</time>
      </trkpt>
      <trkpt lat="37.81954" lon="-8.78587">
        <ele>27</ele>
        <time>2010-01-01T01:23:07Z</time>
      </trkpt>
      <trkpt lat="37.82002" lon="-8.78662">
        <ele>26</ele>
        <time>2010-01-01T01:23:37Z</time>
      </trkpt>
      <trkpt lat="37.82014" lon="-8.78696">
        <ele>24</ele>
        <time>2010-01-01T01:23:49Z</time>
      </trkpt>
      <trkpt lat="37.8199" lon="-8.78831">
        <ele>19</ele>
        <time>2010-01-01T01:24:33Z</time>
      </trkpt>
      <trkpt lat="37.81946" lon="-8.78963">
        <ele>17</ele>
        <time>2010-01-01T01:25:18Z</time>
      </trkpt>
      <trkpt lat="37.81957" lon="-8.79002">
        <ele>13</ele>
        <time>2010-01-01T01:25:31Z</time>
      </trkpt>
      <trkpt lat="37.81998" lon="-8.78979">
        <ele>11</ele>
        <time>2010-01-01T01:25:49Z</time>
      </trkpt>
      <trkpt lat="37.82008" lon="-8.78971">
        <ele>12</ele>
        <time>2010-01-01T01:25:54Z</time>
      </trkpt>
      <trkpt lat="37.82023" lon="-8.78972">
        <ele>12</ele>
        <time>2010-01-01T01:26:00Z</time>
      </trkpt>
      <trkpt lat="37.82054" lon="-8.78977">
        <ele>13</ele>
        <time>2010-01-01T01:26:12Z</time>
      </trkpt>
      <trkpt lat="37.82079" lon="-8.78974">
        <ele>14</ele>
        <time>2010-01-01T01:26:22Z</time>
      </trkpt>
      <trkpt lat="37.82163" lon="-8.78923">
        <ele>17</ele>
        <time>2010-01-01T01:27:00Z</time>
      </trkpt>
      <trkpt lat="37.82283" lon="-8.78988">
        <ele>15</ele>
        <time>2010-01-01T01:27:52Z</time>
      </trkpt>
      <trkpt lat="37.8253" lon="-8.7904">
        <ele>17</ele>
        <time>2010-01-01T01:29:32Z</time>
      </trkpt>
      <trkpt lat="37.82569" lon="-8.79046">
        <ele>17</ele>
        <time>2010-01-01T01:29:48Z</time>
      </trkpt>
      <trkpt lat="37.82607" lon="-8.79055">
        <ele>16</ele>
        <time>2010-01-01T01:30:03Z</time>
      </trkpt>
      <trkpt lat="37.82739" lon="-8.79081">
        <ele>23</ele>
        <time>2010-01-01T01:30:57Z</time>
      </trkpt>
      <trkpt lat="37.82797" lon="-8.79082">
        <ele>29</ele>
        <time>2010-01-01T01:31:20Z</time>
      </trkpt>
      <trkpt lat="37.82827" lon="-8.79063">
        <ele>28</ele>
        <time>2010-01-01T01:31:34Z</time>
      </trkpt>
      <trkpt lat="37.82837" lon="-8.79016">
        <ele>27</ele>
        <time>2010-01-01T01:31:49Z</time>
      </trkpt>
      <trkpt lat="37.82902" lon="-8.78946">
        <ele>27</ele>
        <time>2010-01-01T01:32:23Z</time>
      </trkpt>
      <trkpt lat="37.83041" lon="-8.78791">
        <ele>25</ele>
        <time>2010-01-01T01:33:37Z</time>
      </trkpt>
      <trkpt lat="37.83094" lon="-8.78729">
        <ele>24</ele>
        <time>2010-01-01T01:34:06Z</time>
      </trkpt>
      <trkpt lat="37.83139" lon="-8.78708">
        <ele>21</ele>
        <time>2010-01-01T01:34:25Z</time>
      </trkpt>
      <trkpt lat="37.83224" lon="-8.78684">
        <ele>22</ele>
        <time>2010-01-01T01:35:00Z</time>
      </trkpt>
      <trkpt lat="37.83337" lon="-8.78698">
        <ele>25</ele>
        <time>2010-01-01T01:35:46Z</time>
      </trkpt>
      <trkpt lat="37.83571" lon="-8.78728">
        <ele>26</ele>
        <time>2010-01-01T01:37:20Z</time>
      </trkpt>
      <trkpt lat="37.83756" lon="-8.7875">
        <ele>19</ele>
        <time>2010-01-01T01:38:34Z</time>
      </trkpt>
      <trkpt lat="37.83806" lon="-8.7875">
        <ele>21</ele>
        <time>2010-01-01T01:38:54Z</time>
      </trkpt>
      <trkpt lat="37.84037" lon="-8.78856">
        <ele>25</ele>
        <time>2010-01-01T01:40:32Z</time>
      </trkpt>
      <trkpt lat="37.84161" lon="-8.78915">
        <ele>26</ele>
        <time>2010-01-01T01:41:25Z</time>
      </trkpt>
      <trkpt lat="37.84229" lon="-8.78904">
        <ele>22</ele>
        <time>2010-01-01T01:41:53Z</time>
      </trkpt>
      <trkpt lat="37.84331" lon="-8.78986">
        <ele>26</ele>
        <time>2010-01-01T01:42:41Z</time>
      </trkpt>
      <trkpt lat="37.84349" lon="-8.79025">
        <ele>28</ele>
        <time>2010-01-01T01:42:55Z</time>
      </trkpt>
      <trkpt lat="37.84383" lon="-8.79051">
        <ele>29</ele>
        <time>2010-01-01T01:43:11Z</time>
      </trkpt>
      <trkpt lat="37.84472" lon="-8.79099">
        <ele>25</ele>
        <time>2010-01-01T01:43:50Z</time>
      </trkpt>
      <trkpt lat="37.84521" lon="-8.79097">
        <ele>24</ele>
        <time>2010-01-01T01:44:09Z</time>
      </trkpt>
      <trkpt lat="37.84571" lon="-8.79139">
        <ele>22</ele>
        <time>2010-01-01T01:44:34Z</time>
      </trkpt>
      <trkpt lat="37.84666" lon="-8.79181">
        <ele>20</ele>
        <time>2010-01-01T01:45:14Z</time>
      </trkpt>
      <trkpt lat="37.84759" lon="-8.79236">
        <ele>22</ele>
        <time>2010-01-01T01:45:55Z</time>
      </trkpt>
      <trkpt lat="37.84788" lon="-8.79143">
        <ele>25</ele>
        <time>2010-01-01T01:46:27Z</time>
      </trkpt>
      <trkpt lat="37.84787" lon="-8.79025">
        <ele>32</ele>
        <time>2010-01-01T01:47:04Z</time>
      </trkpt>
      <trkpt lat="37.84726" lon="-8.78866">
        <ele>35</ele>
        <time>2010-01-01T01:48:00Z</time>
      </trkpt>
      <trkpt lat="37.84688" lon="-8.7871">
        <ele>40</ele>
        <time>2010-01-01T01:48:52Z</time>
      </trkpt>
      <trkpt lat="37.84658" lon="-8.78409">
        <ele>46</ele>
        <time>2010-01-01T01:50:27Z</time>
      </trkpt>
      <trkpt lat="37.84624" lon="-8.78164">
        <ele>49</ele>
        <time>2010-01-01T01:51:46Z</time>
      </trkpt>
      <trkpt lat="37.84591" lon="-8.77943">
        <ele>50</ele>
        <time>2010-01-01T01:52:57Z</time>
      </trkpt>
      <trkpt lat="37.8455" lon="-8.77647">
        <ele>56</ele>
        <time>2010-01-01T01:54:32Z</time>
      </trkpt>
      <trkpt lat="37.84483" lon="-8.7746">
        <ele>58</ele>
        <time>2010-01-01T01:55:37Z</time>
      </trkpt>
      <trkpt lat="37.8447" lon="-8.77409">
        <ele>59</ele>
        <time>2010-01-01T01:55:54Z</time>
      </trkpt>
      <trkpt lat="37.84686" lon="-8.76951">
        <ele>61</ele>
        <time>2010-01-01T01:58:43Z</time>
      </trkpt>
      <trkpt lat="37.84756" lon="-8.76804">
        <ele>62</ele>
        <time>2010-01-01T01:59:37Z</time>
      </trkpt>
      <trkpt lat="37.84846" lon="-8.76734">
        <ele>61</ele>
        <time>2010-01-01T02:00:19Z</time>
      </trkpt>
      <trkpt lat="37.8505" lon="-8.76618">
        <ele>64</ele>
        <time>2010-01-01T02:01:49Z</time>
      </trkpt>
      <trkpt lat="37.85328" lon="-8.76478">
        <ele>67</ele>
        <time>2010-01-01T02:03:49Z</time>
      </trkpt>
      <trkpt lat="37.85502" lon="-8.76386">
        <ele>69</ele>
        <time>2010-01-01T02:05:04Z</time>
      </trkpt>
      <trkpt lat="37.85576" lon="-8.76352">
        <ele>70</ele>
        <time>2010-01-01T02:05:35Z</time>
      </trkpt>
      <trkpt lat="37.85752" lon="-8.76431">
        <ele>68</ele>
        <time>2010-01-01T02:06:50Z</time>
      </trkpt>
      <trkpt lat="37.85609" lon="-8.76888">
        <ele>65</ele>
        <time>2010-01-01T02:09:26Z</time>
      </trkpt>
      <trkpt lat="37.85543" lon="-8.77086">
        <ele>60</ele>
        <time>2010-01-01T02:10:33Z</time>
      </trkpt>
      <trkpt lat="37.85494" lon="-8.77565">
        <ele>55</ele>
        <time>2010-01-01T02:13:06Z</time>
      </trkpt>
      <trkpt lat="37.85432" lon="-8.78027">
        <ele>47</ele>
        <time>2010-01-01T02:15:34Z</time>
      </trkpt>
      <trkpt lat="37.85361" lon="-8.78646">
        <ele>40</ele>
        <time>2010-01-01T02:18:52Z</time>
      </trkpt>
      <trkpt lat="37.8535" lon="-8.78737">
        <ele>37</ele>
        <time>2010-01-01T02:19:21Z</time>
      </trkpt>
      <trkpt lat="37.85323" lon="-8.78816">
        <ele>35</ele>
        <time>2010-01-01T02:19:48Z</time>
      </trkpt>
      <trkpt lat="37.85203" lon="-8.79085">
        <ele>28</ele>
        <time>2010-01-01T02:21:26Z</time>
      </trkpt>
      <trkpt lat="37.85254" lon="-8.79123">
        <ele>28</ele>
        <time>2010-01-01T02:21:49Z</time>
      </trkpt>
      <trkpt lat="37.8514" lon="-8.79363">
        <ele>21</ele>
        <time>2010-01-01T02:23:18Z</time>
      </trkpt>
      <trkpt lat="37.85232" lon="-8.79384">
        <ele>21</ele>
        <time>2010-01-01T02:23:55Z</time>
      </trkpt>
      <trkpt lat="37.85286" lon="-8.79394">
        <ele>21</ele>
        <time>2010-01-01T02:24:17Z</time>
      </trkpt>
      <trkpt lat="37.85357" lon="-8.7937">
        <ele>21</ele>
        <time>2010-01-01T02:24:47Z</time>
      </trkpt>
      <trkpt lat="37.85457" lon="-8.79341">
        <ele>19</ele>
        <time>2010-01-01T02:25:28Z</time>
      </trkpt>
      <trkpt lat="37.85504" lon="-8.79338">
        <ele>16</ele>
        <time>2010-01-01T02:25:46Z</time>
      </trkpt>
      <trkpt lat="37.8558" lon="-8.79328">
        <ele>18</ele>
        <time>2010-01-01T02:26:17Z</time>
      </trkpt>
      <trkpt lat="37.85601" lon="-8.79317">
        <ele>18</ele>
        <time>2010-01-01T02:26:26Z</time>
      </trkpt>
      <trkpt lat="37.85629" lon="-8.79285">
        <ele>18</ele>
        <time>2010-01-01T02:26:41Z</time>
      </trkpt>
      <trkpt lat="37.85654" lon="-8.79261">
        <ele>17</ele>
        <time>2010-01-01T02:26:54Z</time>
      </trkpt>
      <trkpt lat="37.85683" lon="-8.7925">
        <ele>16</ele>
        <time>2010-01-01T02:27:06Z</time>
      </trkpt>
      <trkpt lat="37.85744" lon="-8.79238">
        <ele>14</ele>
        <time>2010-01-01T02:27:31Z</time>
      </trkpt>
    </trkseg>
  </trk>
</gpx>